Time;durP1;ratioP1;P1;durP2;ratioP2;P2;SDS_P1;SDS_P2;PMS_P1;PMS_P2;Temp;Humidity;BMP_temperature;BMP_pressure;BME280_temperature;BME280_humidity;BME280_pressure;Samples;Min_cycle;Max_cycle;Signal;HPM_P1;HPM_P2
2022/02/01 00:00:43;;;;;;;11.17;1.60;;;;;;;-142.75;100.00;78807.09;5027520;28;20510;-67
2022/02/01 00:03:12;;;;;;;8.97;1.37;;;;;;;-142.75;100.00;78811.03;5031147;22;20082;-70
2022/02/01 00:05:46;;;;;;;10.67;1.50;;;;;;;-142.75;100.00;78830.75;5007432;28;20041;-67
2022/02/01 00:11:14;;;;;;;16.63;1.97;;;;;;;-142.75;100.00;78801.19;5008818;28;20044;-68
2022/02/01 00:37:27;;;;;;;17.87;1.97;;;;;;;-142.75;100.00;78773.63;5009274;28;20061;-68
2022/02/01 00:39:57;;;;;;;10.60;1.57;;;;;;;-142.75;100.00;78763.78;5009402;28;20017;-68
2022/02/01 00:42:23;;;;;;;6.87;1.13;;;;;;;-142.75;100.00;78763.78;5008383;28;20487;-67
2022/02/01 00:44:48;;;;;;;15.15;1.65;;;;;;;-142.75;100.00;78771.66;5010684;28;20024;-68
2022/02/01 00:47:14;;;;;;;9.40;1.52;;;;;;;-142.75;100.00;78763.78;5010988;28;20030;-68
2022/02/01 00:49:39;;;;;;;12.73;1.33;;;;;;;-142.75;100.00;78755.91;5006890;28;20095;-68
2022/02/01 00:52:05;;;;;;;11.45;1.42;;;;;;;-142.75;100.00;78744.09;5009646;28;20029;-68
2022/02/01 00:54:31;;;;;;;9.55;1.10;;;;;;;-142.75;100.00;78712.56;5009688;28;20036;-69
2022/02/01 00:56:56;;;;;;;14.30;1.55;;;;;;;-142.75;100.00;78698.78;5006833;28;20041;-67
2022/02/01 00:59:21;;;;;;;13.52;1.83;;;;;;;-142.75;100.00;78677.13;5006510;28;20026;-68
2022/02/01 01:01:47;;;;;;;11.30;1.77;;;;;;;-142.75;100.00;78671.22;5006445;28;20053;-67
2022/02/01 01:04:12;;;;;;;11.43;2.00;;;;;;;-142.75;100.00;78665.28;5007205;28;20053;-66
2022/02/01 01:06:37;;;;;;;7.93;1.73;;;;;;;-142.75;100.00;78665.28;5008102;28;20029;-67
2022/02/01 01:09:03;;;;;;;13.35;1.65;;;;;;;-142.75;100.00;78653.47;5007598;28;20080;-68
2022/02/01 01:11:29;;;;;;;11.07;1.27;;;;;;;-142.75;100.00;78657.41;5007873;28;20025;-68
2022/02/01 01:43:46;;;;;;;7.47;1.50;;;;;;;-142.75;100.00;78686.97;5011250;28;20526;-69
2022/02/01 01:54:25;;;;;;;9.67;1.40;;;;;;;-142.75;100.00;78694.84;5011086;28;20045;-68
2022/02/01 01:56:54;;;;;;;8.33;1.20;;;;;;;-142.75;100.00;78692.88;5010857;28;20096;-68
2022/02/01 01:59:20;;;;;;;7.23;1.50;;;;;;;-142.75;100.00;78688.94;5010412;28;20018;-68
2022/02/01 02:01:46;;;;;;;7.73;1.53;;;;;;;-142.75;100.00;78692.88;5009212;28;20076;-68
2022/02/01 02:04:11;;;;;;;9.02;1.40;;;;;;;-142.75;100.00;78692.88;5009624;28;20030;-67
2022/02/01 02:06:38;;;;;;;7.95;1.52;;;;;;;-142.75;100.00;78685.00;5010843;28;20088;-67
2022/02/01 02:09:06;;;;;;;12.13;1.70;;;;;;;-142.75;100.00;78686.97;5025375;28;20534;-70
2022/02/01 02:11:43;;;;;;;12.90;1.93;;;;;;;-142.75;100.00;78686.97;5010486;28;20017;-70
2022/02/01 02:16:46;;;;;;;9.53;1.80;;;;;;;-142.75;100.00;78688.94;5010829;28;20038;-69
2022/02/01 02:19:11;;;;;;;11.03;1.77;;;;;;;-142.75;100.00;78706.66;5010371;28;20018;-68
2022/02/01 02:21:38;;;;;;;15.57;1.88;;;;;;;-142.75;100.00;78704.69;5025569;28;20475;-68
2022/02/01 02:24:05;;;;;;;11.20;1.30;;;;;;;-142.75;100.00;78708.63;5008997;28;20502;-68
2022/02/01 02:26:30;;;;;;;12.20;1.40;;;;;;;-142.75;100.00;78700.75;5008524;28;20076;-68
2022/02/01 02:28:57;;;;;;;7.90;1.45;;;;;;;-142.75;100.00;78683.03;5009923;28;20045;-68
2022/02/01 02:31:23;;;;;;;9.60;1.80;;;;;;;-142.75;100.00;78673.19;5010081;28;20507;-69
2022/02/01 02:33:56;;;;;;;9.43;2.17;;;;;;;-142.75;100.00;78677.13;5008825;28;20034;-68
2022/02/01 02:36:22;;;;;;;13.40;2.47;;;;;;;-142.75;100.00;78659.38;5009059;28;20021;-68
2022/02/01 02:38:54;;;;;;;9.75;1.75;;;;;;;-142.75;100.00;78661.34;5009712;28;20041;-68
2022/02/01 02:41:48;;;;;;;14.53;1.90;;;;;;;-142.75;100.00;78653.47;5009965;28;20029;-67
2022/02/01 02:46:57;;;;;;;7.43;1.70;;;;;;;-142.75;100.00;78647.56;5010393;28;20121;-68
2022/02/01 02:49:23;;;;;;;15.03;1.90;;;;;;;-142.75;100.00;78653.47;5009669;28;20454;-69
2022/02/01 02:51:49;;;;;;;16.48;2.10;;;;;;;-142.75;100.00;78647.56;5008454;28;20351;-68
2022/02/01 02:54:25;;;;;;;13.50;1.77;;;;;;;-142.75;100.00;78637.72;5009901;28;20483;-66
2022/02/01 02:56:52;;;;;;;;;;;;;;;-142.75;100.00;78635.75;5009977;28;20026;-69
2022/02/01 02:59:18;;;;;;;10.98;2.10;;;;;;;-142.75;100.00;78633.78;5009453;28;19948;-67
2022/02/01 03:01:47;;;;;;;14.40;2.25;;;;;;;-142.75;100.00;78621.97;5009233;28;20030;-67
2022/02/01 03:04:14;;;;;;;12.97;2.23;;;;;;;-142.75;100.00;78618.03;5009769;28;20113;-66
2022/02/01 03:06:40;;;;;;;16.03;2.63;;;;;;;-142.75;100.00;78602.28;5024833;28;20471;-69
2022/02/01 03:09:05;;;;;;;9.02;2.10;;;;;;;-142.75;100.00;78588.50;5009407;28;20041;-67
2022/02/01 03:11:30;;;;;;;13.73;2.07;;;;;;;-142.75;100.00;78590.47;5009417;28;20021;-67
2022/02/01 03:13:59;;;;;;;9.90;1.58;;;;;;;-142.75;100.00;78594.41;5009704;28;20280;-67
2022/02/01 03:17:17;;;;;;;18.83;2.60;;;;;;;-142.75;100.00;78576.66;5010861;28;20022;-67
2022/02/01 03:21:53;;;;;;;9.13;1.70;;;;;;;-142.75;100.00;78574.69;5009272;28;20561;-66
2022/02/01 03:24:19;;;;;;;13.50;2.10;;;;;;;-142.75;100.00;78545.16;5009264;28;20022;-67
2022/02/01 03:26:44;;;;;;;10.10;2.03;;;;;;;-142.75;100.00;78533.34;5009176;28;20273;-67
2022/02/01 03:29:09;;;;;;;8.93;2.15;;;;;;;-142.75;100.00;78527.44;5008866;28;20040;-67
2022/02/01 03:31:35;;;;;;;8.27;2.13;;;;;;;-142.75;100.00;78527.44;5008841;28;20036;-67
2022/02/01 03:34:00;;;;;;;11.15;1.77;;;;;;;-142.75;100.00;78535.31;5024078;28;20658;-67
2022/02/01 03:36:25;;;;;;;9.52;2.22;;;;;;;-142.75;100.00;78529.41;5009287;28;20558;-67
2022/02/01 03:38:51;;;;;;;11.18;2.95;;;;;;;-142.75;100.00;78519.56;5007791;28;20435;-67
2022/02/01 03:41:16;;;;;;;13.93;2.22;;;;;;;-142.75;100.00;78527.44;5008911;28;20431;-67
2022/02/01 03:43:42;;;;;;;13.50;2.28;;;;;;;-142.75;100.00;78529.41;5007884;28;20141;-69
2022/02/01 03:46:08;;;;;;;10.00;2.38;;;;;;;-142.75;100.00;78517.59;5009408;28;20751;-69
2022/02/01 03:48:33;;;;;;;18.95;2.47;;;;;;;-142.75;100.00;78517.59;5008667;28;20391;-67
2022/02/01 03:50:58;;;;;;;9.33;2.00;;;;;;;-142.75;100.00;78519.56;5008827;28;20026;-68
2022/02/01 03:53:23;;;;;;;19.45;2.65;;;;;;;-142.75;100.00;78511.69;5008640;28;20099;-67
2022/02/01 03:55:49;;;;;;;9.00;1.97;;;;;;;-142.75;100.00;78509.72;5007000;28;20112;-67
2022/02/01 03:58:14;;;;;;;8.30;1.83;;;;;;;-142.75;100.00;78527.44;5008445;28;20271;-66
2022/02/01 04:00:39;;;;;;;14.63;2.00;;;;;;;-142.75;100.00;78515.63;5007367;28;20690;-67
2022/02/01 04:03:05;;;;;;;8.50;2.28;;;;;;;-142.75;100.00;78519.56;5007169;28;20116;-67
2022/02/01 04:05:34;;;;;;;17.93;2.23;;;;;;;-142.75;100.00;78521.53;5008884;28;20029;-67
2022/02/01 04:08:00;;;;;;;9.77;2.03;;;;;;;-142.75;100.00;78501.84;5023387;28;20277;-68
2022/02/01 04:10:26;;;;;;;15.63;2.50;;;;;;;-142.75;100.00;78505.78;5005886;28;20023;-67
2022/02/01 04:12:53;;;;;;;16.05;3.13;;;;;;;-142.75;100.00;78507.75;5008471;28;20022;-69
2022/02/01 04:15:20;;;;;;;;;;;;;;;-142.75;100.00;78491.97;5007943;28;20029;-68
2022/02/01 04:17:46;;;;;;;11.80;2.63;;;;;;;-142.75;100.00;78478.19;5007386;28;20295;-64
2022/02/01 04:20:12;;;;;;;16.52;2.60;;;;;;;-142.75;100.00;78472.28;5007159;28;20121;-66
2022/02/01 04:22:37;;;;;;;16.25;3.63;;;;;;;-142.75;100.00;78476.22;5008504;28;20105;-67
2022/02/01 04:25:03;;;;;;;15.95;3.00;;;;;;;-142.75;100.00;78476.22;5008407;28;20037;-67
2022/02/01 04:27:31;;;;;;;12.20;3.28;;;;;;;-142.75;100.00;78484.09;5008374;28;20055;-69
2022/02/01 04:30:07;;;;;;;15.53;3.20;;;;;;;-142.75;100.00;78476.22;5008007;28;20037;-66
2022/02/01 04:32:38;;;;;;;12.07;3.53;;;;;;;-142.75;100.00;78470.31;5008305;28;20113;-67
2022/02/01 04:35:06;;;;;;;18.23;3.67;;;;;;;-142.75;100.00;78470.31;5008408;28;20025;-67
2022/02/01 04:37:31;;;;;;;21.90;3.83;;;;;;;-142.75;100.00;78464.41;5006825;28;20420;-68
2022/02/01 04:39:57;;;;;;;25.17;5.38;;;;;;;-142.75;100.00;78468.34;5007819;28;20022;-66
2022/02/01 04:42:24;;;;;;;20.98;3.80;;;;;;;-142.75;100.00;78456.53;5023367;28;20160;-67
2022/02/01 04:44:49;;;;;;;18.80;3.77;;;;;;;-142.75;100.00;78452.59;5008448;28;20388;-67
2022/02/01 04:47:15;;;;;;;20.13;4.68;;;;;;;-142.75;100.00;78452.59;5008659;28;20029;-66
2022/02/01 04:49:40;;;;;;;18.23;4.75;;;;;;;-142.75;100.00;78458.50;5006744;28;20026;-68
2022/02/01 04:52:06;;;;;;;20.08;4.55;;;;;;;-142.75;100.00;78454.56;5006918;28;20052;-67
2022/02/01 04:54:31;;;;;;;15.35;4.53;;;;;;;-142.75;100.00;78444.72;5008119;28;20037;-67
2022/02/01 04:56:57;;;;;;;24.98;4.93;;;;;;;-142.75;100.00;78446.69;5008115;28;20117;-69
2022/02/01 04:59:22;;;;;;;27.63;4.82;;;;;;;-142.75;100.00;78436.84;5007827;28;20061;-66
2022/02/01 05:01:47;;;;;;;16.53;4.33;;;;;;;-142.75;100.00;78427.00;5007813;28;20029;-67
2022/02/01 05:04:19;;;;;;;15.60;3.97;;;;;;;-142.75;100.00;78419.13;5008038;28;20049;-67
2022/02/01 05:06:47;;;;;;;25.70;4.53;;;;;;;-142.75;100.00;78423.06;5007292;28;20022;-67
2022/02/01 05:09:12;;;;;;;19.23;4.07;;;;;;;-142.75;100.00;78407.31;5011423;28;20026;-67
2022/02/01 05:11:38;;;;;;;18.70;3.50;;;;;;;-142.75;100.00;78401.38;5011625;28;20087;-67
2022/02/01 05:14:25;;;;;;;20.30;3.80;;;;;;;-142.75;100.00;78391.53;5011881;28;20288;-67
2022/02/01 05:19:25;;;;;;;20.77;3.60;;;;;;;-142.75;100.00;78389.56;5011560;28;20049;-67
2022/02/01 05:21:51;;;;;;;17.67;3.30;;;;;;;-142.75;100.00;78387.59;5011580;28;20021;-67
2022/02/01 05:24:19;;;;;;;;;;;;;;;-142.75;100.00;78385.63;5011881;28;20026;-69
2022/02/01 05:26:45;;;;;;;18.93;4.53;;;;;;;-142.75;100.00;78389.56;5011382;28;19920;-67
2022/02/01 05:29:10;;;;;;;24.17;4.80;;;;;;;-142.75;100.00;78391.53;5009772;28;20108;-67
2022/02/01 05:31:35;;;;;;;18.17;3.83;;;;;;;-142.75;100.00;78409.28;5011402;28;20026;-67
2022/02/01 05:34:01;;;;;;;20.30;4.57;;;;;;;-142.75;100.00;78401.38;5011306;28;20093;-66
2022/02/01 05:36:26;;;;;;;17.70;3.70;;;;;;;-142.75;100.00;78391.53;5026683;28;20036;-67
2022/02/01 05:38:53;;;;;;;16.43;4.10;;;;;;;-142.75;100.00;78385.63;5010901;28;20277;-67
2022/02/01 05:41:18;;;;;;;17.60;3.70;;;;;;;-142.75;100.00;78393.50;5011165;28;20280;-68
2022/02/01 05:43:44;;;;;;;16.58;4.43;;;;;;;-142.75;100.00;78399.44;5010001;28;20036;-66
2022/02/01 05:46:10;;;;;;;26.20;5.07;;;;;;;-142.75;100.00;78393.50;5011400;28;20050;-67
2022/02/01 05:48:35;;;;;;;18.95;4.68;;;;;;;-142.75;100.00;78383.66;5010793;28;20281;-67
2022/02/01 05:51:01;;;;;;;22.67;5.80;;;;;;;-142.75;100.00;78373.81;5009918;28;20036;-68
2022/02/01 05:53:27;;;;;;;20.05;5.65;;;;;;;-142.75;100.00;78377.75;5010933;28;20108;-67
2022/02/01 05:55:53;;;;;;;;;;;;;;;-142.75;100.00;78377.75;5011451;28;20080;-67
2022/02/01 05:58:19;;;;;;;16.83;5.40;;;;;;;-142.75;100.00;78373.81;5010520;28;19918;-67
2022/02/01 06:00:45;;;;;;;19.38;5.47;;;;;;;-142.75;100.00;78385.63;5009566;28;20030;-67
2022/02/01 06:03:10;;;;;;;14.05;5.38;;;;;;;-142.75;100.00;78377.75;5043372;22;20048;-67
2022/02/01 06:05:35;;;;;;;21.17;6.35;;;;;;;-142.75;100.00;78383.66;5027770;28;20033;-66
2022/02/01 06:08:02;;;;;;;20.98;6.35;;;;;;;-142.75;100.00;78383.66;5029547;28;20052;-67
2022/02/01 06:10:28;;;;;;;;;;;;;;;-142.75;100.00;78379.72;5029533;28;20079;-67
2022/02/01 06:12:53;;;;;;;16.83;6.00;;;;;;;-142.75;100.00;78367.91;5030200;28;19916;-66
2022/02/01 06:15:23;;;;;;;15.98;5.25;;;;;;;-142.75;100.00;78360.03;5030506;28;20025;-66
2022/02/01 06:17:48;;;;;;;19.27;6.53;;;;;;;-142.75;100.00;78365.94;5030060;28;20437;-66
2022/02/01 06:20:15;;;;;;;25.42;6.32;;;;;;;-142.75;100.00;78360.03;5028957;28;20033;-66
2022/02/01 06:22:41;;;;;;;24.67;6.87;;;;;;;-142.75;100.00;78358.06;5029982;28;20034;-66
2022/02/01 06:25:07;;;;;;;15.50;5.93;;;;;;;-142.75;100.00;78346.25;5028528;28;20079;-66
2022/02/01 06:27:33;;;;;;;16.37;5.83;;;;;;;-142.75;100.00;78328.53;5030003;28;20647;-67
2022/02/01 06:29:58;;;;;;;19.77;6.70;;;;;;;-142.75;100.00;78318.69;5029611;28;20021;-67
2022/02/01 06:32:30;;;;;;;20.75;7.57;;;;;;;-142.75;100.00;78318.69;5029955;28;20276;-66
2022/02/01 06:34:56;;;;;;;18.70;6.70;;;;;;;-142.75;100.00;78310.81;5029933;28;20036;-67
2022/02/01 06:37:21;;;;;;;23.80;7.60;;;;;;;-142.75;100.00;78310.81;5030100;28;20025;-67
2022/02/01 06:39:46;;;;;;;19.48;6.32;;;;;;;-142.75;100.00;78302.94;5028025;28;20013;-65
2022/02/01 06:42:11;;;;;;;18.63;7.10;;;;;;;-142.75;100.00;78299.00;5029776;28;20471;-66
2022/02/01 06:44:37;;;;;;;17.87;6.73;;;;;;;-142.75;100.00;78302.94;5028682;28;20264;-66
2022/02/01 06:47:02;;;;;;;16.20;6.60;;;;;;;-142.75;100.00;78295.06;5030185;28;20399;-67
2022/02/01 06:49:28;;;;;;;25.25;7.35;;;;;;;-142.75;100.00;78289.13;5029278;28;20074;-68
2022/02/01 06:51:53;;;;;;;13.38;5.97;;;;;;;-142.75;100.00;78281.25;5029764;28;20029;-68
2022/02/01 06:54:19;;;;;;;14.23;5.80;;;;;;;-142.75;100.00;78275.34;5029554;28;20079;-68
2022/02/01 06:56:44;;;;;;;16.70;6.82;;;;;;;-142.75;100.00;78273.38;5029448;28;20383;-68
2022/02/01 06:59:10;;;;;;;18.15;6.70;;;;;;;-142.75;100.00;78265.50;5029255;28;20051;-68
2022/02/01 07:01:35;;;;;;;21.42;6.50;;;;;;;-142.75;100.00;78263.53;5028155;28;20041;-68
2022/02/01 07:04:02;;;;;;;15.43;6.03;;;;;;;-142.75;100.00;78257.63;5029247;28;20033;-68
2022/02/01 07:06:31;;;;;;;21.80;6.30;;;;;;;-142.75;100.00;78249.75;5029528;28;20060;-68
2022/02/01 07:08:58;;;;;;;22.03;7.17;;;;;;;-142.75;100.00;78239.91;5027633;28;20491;-68
2022/02/01 07:11:23;;;;;;;15.60;6.07;;;;;;;-142.75;100.00;78234.00;5029170;28;20475;-68
2022/02/01 07:13:50;;;;;;;12.73;5.35;;;;;;;-142.75;100.00;78239.91;5028962;28;20104;-66
2022/02/01 07:16:17;;;;;;;11.87;4.33;;;;;;;-142.75;100.00;78241.88;5029350;28;20034;-66
2022/02/01 07:18:42;;;;;;;9.90;3.77;;;;;;;-142.75;100.00;78243.84;5029200;28;20083;-69
2022/02/01 07:21:07;;;;;;;10.20;4.05;;;;;;;-142.75;100.00;78239.91;5028179;28;20487;-69
2022/02/01 07:23:34;;;;;;;8.20;3.92;;;;;;;-142.75;100.00;78235.97;5029558;28;20025;-67
2022/02/01 07:26:00;;;;;;;;;;;;;;;-142.75;100.00;78232.03;5029669;28;20051;-66
2022/02/01 07:28:27;;;;;;;4.50;2.47;;;;;;;-142.75;100.00;78235.97;5028532;28;19920;-66
2022/02/01 07:30:54;;;;;;;9.37;3.47;;;;;;;-142.75;100.00;78232.03;5026829;28;20497;-67
2022/02/01 07:33:20;;;;;;;8.60;3.33;;;;;;;-142.75;100.00;78234.00;5028722;28;20100;-66
2022/02/01 07:35:47;;;;;;;7.07;3.75;;;;;;;-142.75;100.00;78228.09;5029064;28;20108;-66
2022/02/01 07:38:19;;;;;;;6.73;2.87;;;;;;;-142.75;100.00;78216.28;5028368;28;20037;-66
2022/02/01 07:40:45;;;;;;;5.93;2.97;;;;;;;-142.75;100.00;78216.28;5027394;28;20033;-66
2022/02/01 07:43:12;;;;;;;7.73;3.00;;;;;;;-142.75;100.00;78204.47;5028249;28;20037;-67
2022/02/01 07:45:40;;;;;;;5.70;3.07;;;;;;;-142.75;100.00;78186.75;5028818;28;20045;-67
2022/02/01 07:48:06;;;;;;;5.87;2.83;;;;;;;-142.75;100.00;78184.78;5027448;28;20513;-66
2022/02/01 07:50:35;;;;;;;5.40;2.95;;;;;;;-142.75;100.00;78184.78;5028487;28;20026;-67
2022/02/01 07:53:01;;;;;;;5.70;2.60;;;;;;;-142.75;100.00;78172.94;5028359;28;20025;-66
2022/02/01 07:55:27;;;;;;;4.90;2.83;;;;;;;-142.75;100.00;78165.06;5028564;28;20031;-68
2022/02/01 07:57:52;;;;;;;4.88;2.72;;;;;;;-142.75;100.00;78161.13;5028118;28;20025;-66
2022/02/01 08:00:17;;;;;;;4.37;2.77;;;;;;;-142.75;100.00;78161.13;5028320;28;20386;-67
2022/02/01 08:02:43;;;;;;;4.57;3.22;;;;;;;-142.75;100.00;78157.19;5028101;28;20264;-67
2022/02/01 08:05:10;;;;;;;5.50;2.83;;;;;;;-142.75;100.00;78161.13;5028815;28;20039;-67
2022/02/01 08:07:35;;;;;;;3.90;2.83;;;;;;;-142.75;100.00;78151.28;5028842;28;20028;-66
2022/02/01 08:10:03;;;;;;;4.47;2.78;;;;;;;-142.75;100.00;78143.41;5028395;28;20037;-67
2022/02/01 08:13:20;;;;;;;4.80;3.07;;;;;;;-142.75;100.00;78139.47;5028255;28;20112;-68
2022/02/01 08:23:18;;;;;;;7.63;3.20;;;;;;;-142.75;100.00;78125.69;5029823;28;20029;-67
2022/02/01 08:25:43;;;;;;;6.72;3.15;;;;;;;-142.75;100.00;78121.75;5028011;28;20280;-67
2022/02/01 08:28:10;;;;;;;10.55;3.20;;;;;;;-142.75;100.00;78111.91;5030777;28;20025;-67
2022/02/01 08:30:36;;;;;;;7.10;3.57;;;;;;;-142.75;100.00;78094.19;5027185;28;20037;-68
2022/02/01 08:33:02;;;;;;;14.75;3.95;;;;;;;-142.75;100.00;78084.34;5028262;28;20029;-67
2022/02/01 08:35:28;;;;;;;8.13;3.40;;;;;;;-142.75;100.00;78068.59;5028676;28;20021;-68
2022/02/01 08:37:53;;;;;;;8.35;3.03;;;;;;;-142.75;100.00;78066.63;5026990;28;20037;-67
2022/02/01 08:40:19;;;;;;;8.77;3.30;;;;;;;-142.75;100.00;78060.72;5028538;28;20096;-69
2022/02/01 08:42:47;;;;;;;6.53;2.58;;;;;;;-142.75;100.00;78054.81;5031928;28;20311;-70
2022/02/01 08:45:20;;;;;;;9.60;2.77;;;;;;;-142.75;100.00;78039.03;5032495;28;20031;-68
2022/02/01 08:47:46;;;;;;;4.67;2.53;;;;;;;-142.75;100.00;78021.31;5032785;28;20501;-69
2022/02/01 08:50:11;;;;;;;6.55;2.40;;;;;;;-142.75;100.00;78003.59;5031502;28;20026;-68
2022/02/01 08:52:43;;;;;;;6.85;2.75;;;;;;;-142.75;100.00;78009.50;5031972;28;20041;-68
2022/02/01 08:55:19;;;;;;;9.57;2.57;;;;;;;-142.75;100.00;77995.72;5030586;28;20021;-67
2022/02/01 08:57:46;;;;;;;8.55;2.90;;;;;;;-142.75;100.00;77987.84;5031713;28;20025;-68
2022/02/01 09:00:15;;;;;;;6.40;2.67;;;;;;;-142.75;100.00;77989.81;5031443;28;20392;-69
2022/02/01 09:02:41;;;;;;;6.40;2.60;;;;;;;-142.75;100.00;77985.88;5031463;28;20033;-68
2022/02/01 09:05:07;;;;;;;6.35;2.90;;;;;;;-142.75;100.00;77983.91;5031631;28;20408;-68
2022/02/01 09:07:32;;;;;;;;;;;;;;;-142.75;100.00;77972.09;5031306;28;20036;-68
2022/02/01 09:09:58;;;;;;;4.80;2.30;;;;;;;-142.75;100.00;77989.81;5030592;28;19924;-68
2022/02/01 09:12:23;;;;;;;7.07;2.90;;;;;;;-142.75;100.00;77979.97;5030472;28;20057;-68
2022/02/01 09:14:50;;;;;;;9.20;2.92;;;;;;;-142.75;100.00;77972.09;5030596;28;20476;-68
2022/02/01 09:17:16;;;;;;;7.77;2.67;;;;;;;-142.75;100.00;77962.25;5031155;28;20037;-68
2022/02/01 09:19:42;;;;;;;;;;;;;;;-142.75;100.00;77956.34;5029251;28;20076;-68
2022/02/01 09:22:07;;;;;;;9.90;2.67;;;;;;;-142.75;100.00;77948.47;5030297;28;19917;-67
2022/02/01 09:24:33;;;;;;;10.48;3.03;;;;;;;-142.75;100.00;77934.69;5030336;28;20034;-68
2022/02/01 09:26:59;;;;;;;7.80;3.00;;;;;;;-142.75;100.00;77924.84;5030037;28;20487;-67
2022/02/01 09:29:25;;;;;;;5.90;3.00;;;;;;;-142.75;100.00;77909.06;5029861;28;20029;-68
2022/02/01 09:31:53;;;;;;;8.15;3.85;;;;;;;-142.75;100.00;77901.19;5030218;28;20087;-68
2022/02/01 09:34:19;;;;;;;7.73;2.97;;;;;;;-142.75;100.00;77885.44;5030004;28;20028;-68
2022/02/01 09:36:44;;;;;;;11.73;3.63;;;;;;;-142.75;100.00;77901.19;5028709;28;20064;-68
2022/02/01 09:39:10;;;;;;;11.73;4.07;;;;;;;-142.75;100.00;77887.41;5029815;28;20041;-68
2022/02/01 09:41:40;;;;;;;8.45;3.88;;;;;;;-142.75;100.00;77881.50;5029902;28;20032;-68
2022/02/01 09:44:06;;;;;;;17.57;4.67;;;;;;;-142.75;100.00;77879.53;5029692;28;20499;-68
2022/02/01 09:46:34;;;;;;;9.23;3.87;;;;;;;-142.75;100.00;77865.75;5029128;28;20379;-68
2022/02/01 09:48:59;;;;;;;8.90;4.57;;;;;;;-142.75;100.00;77869.69;5029867;28;20040;-68
2022/02/01 09:51:25;;;;;;;12.55;5.20;;;;;;;-142.75;100.00;77867.72;5029656;28;20026;-68
2022/02/01 09:53:50;;;;;;;11.27;5.18;;;;;;;-142.75;100.00;77869.69;5028944;28;20475;-68
2022/02/01 09:56:17;;;;;;;9.10;4.28;;;;;;;-142.75;100.00;77869.69;5029581;28;20036;-68
2022/02/01 09:58:44;;;;;;;8.93;4.50;;;;;;;-142.75;100.00;77857.88;5029066;28;20017;-68
2022/02/01 10:01:18;;;;;;;12.30;5.00;;;;;;;-142.75;100.00;77857.88;5029702;28;20087;-68
2022/02/01 10:03:46;;;;;;;15.37;4.90;;;;;;;-142.75;100.00;77840.16;5029445;28;20048;-67
2022/02/01 10:06:14;;;;;;;12.67;4.93;;;;;;;-142.75;100.00;77844.09;5029755;28;20017;-67
2022/02/01 10:08:40;;;;;;;15.87;4.80;;;;;;;-142.75;100.00;77842.13;5028982;28;20033;-68
2022/02/01 10:11:10;;;;;;;11.63;4.80;;;;;;;-142.75;100.00;77838.19;5029291;28;20017;-68
2022/02/01 10:13:41;;;;;;;19.30;6.13;;;;;;;-142.75;100.00;77846.06;5029717;28;20028;-68
2022/02/01 10:16:25;;;;;;;18.50;5.70;;;;;;;-142.75;100.00;77840.16;5029326;28;20103;-68
2022/02/01 10:18:50;;;;;;;15.90;6.00;;;;;;;-142.75;100.00;77842.13;5029535;28;20028;-67
2022/02/01 10:21:15;;;;;;;14.13;6.20;;;;;;;-142.75;100.00;77838.19;5029594;28;20017;-68
2022/02/01 10:23:43;;;;;;;20.83;6.70;;;;;;;-142.75;100.00;77846.06;5029072;28;20272;-67
2022/02/01 10:26:18;;;;;;;16.23;6.93;;;;;;;-142.75;100.00;77848.03;5029032;28;20022;-68
2022/02/01 10:32:13;;;;;;;19.63;6.50;;;;;;;-142.75;100.00;77832.28;5029242;28;20033;-68
2022/02/01 10:36:56;;;;;;;21.87;6.37;;;;;;;-142.75;100.00;77830.31;5029551;28;20037;-67
2022/02/01 10:39:24;;;;;;;20.43;7.40;;;;;;;-142.75;100.00;77810.63;5028706;28;20387;-69
2022/02/01 10:41:54;;;;;;;24.17;6.83;;;;;;;-142.75;100.00;77802.75;5028975;28;20025;-67
2022/02/01 10:44:20;;;;;;;18.97;6.73;;;;;;;-142.75;100.00;77804.72;5028720;28;20021;-68
2022/02/01 10:46:53;;;;;;;26.63;8.23;;;;;;;-142.75;100.00;77798.81;5028907;28;20032;-67
2022/02/01 10:49:29;;;;;;;21.73;7.10;;;;;;;-142.75;100.00;77790.94;5028866;28;20025;-68
2022/02/01 10:52:09;;;;;;;22.83;6.38;;;;;;;-142.75;100.00;77775.19;5028779;28;20056;-68
2022/02/01 10:54:36;;;;;;;21.50;6.23;;;;;;;-142.75;100.00;77779.13;5028414;28;20064;-69
2022/02/01 10:57:04;;;;;;;23.63;6.97;;;;;;;-142.75;100.00;77773.22;5027086;28;20465;-68
2022/02/01 10:59:30;;;;;;;24.20;7.00;;;;;;;-142.75;100.00;77779.13;5028115;28;20044;-67
2022/02/01 11:01:57;;;;;;;16.50;5.13;;;;;;;-142.75;100.00;77787.00;5028562;28;20033;-67
2022/02/01 11:04:24;;;;;;;24.80;6.37;;;;;;;-142.75;100.00;77781.09;5027965;28;20479;-68
2022/02/01 11:06:53;;;;;;;;;;;;;;;-142.75;100.00;77767.31;5028874;28;20075;-68
2022/02/01 11:09:20;;;;;;;18.37;4.67;;;;;;;-142.75;100.00;77761.41;5027071;28;20305;-68
2022/02/01 11:12:10;;;;;;;16.50;5.23;;;;;;;-142.75;100.00;77751.56;5026735;28;20446;-68
2022/02/01 11:14:45;;;;;;;20.33;5.73;;;;;;;-142.75;100.00;77741.72;5028395;28;20021;-67
2022/02/01 11:17:12;;;;;;;19.80;5.43;;;;;;;-142.75;100.00;77743.69;5028683;28;20553;-67
2022/02/01 11:19:46;;;;;;;;;;;;;;;-142.75;100.00;77735.81;5028606;28;20108;-67
2022/02/01 11:22:40;;;;;;;17.00;4.83;;;;;;;-142.75;100.00;77722.00;5027690;28;19917;-67
2022/02/01 11:25:25;;;;;;;17.37;4.77;;;;;;;-142.75;100.00;77716.09;5026239;28;20034;-67
2022/02/01 11:30:43;;;;;;;12.90;4.63;;;;;;;-142.75;100.00;77688.53;5027871;28;20499;-68
2022/02/01 11:33:10;;;;;;;16.10;4.60;;;;;;;-142.75;100.00;77690.50;5027920;28;20029;-67
2022/02/01 11:35:37;;;;;;;16.27;4.80;;;;;;;-142.75;100.00;77684.59;5027695;28;20048;-67
2022/02/01 11:38:04;;;;;;;17.97;4.57;;;;;;;-142.75;100.00;77680.66;5027542;28;20041;-67
2022/02/01 11:40:36;;;;;;;17.17;5.17;;;;;;;-142.75;100.00;77653.09;5027858;28;20501;-67
2022/02/01 11:43:06;;;;;;;16.53;3.90;;;;;;;-142.75;100.00;77639.31;5027590;28;20602;-67
2022/02/01 11:45:38;;;;;;;15.90;4.30;;;;;;;-142.75;100.00;77641.28;5027716;28;20040;-67
2022/02/01 11:48:16;;;;;;;19.87;4.60;;;;;;;-142.75;100.00;77623.56;5028389;28;20387;-68
2022/02/01 11:50:47;;;;;;;19.93;4.50;;;;;;;-142.75;100.00;77609.78;5026114;28;20029;-66
2022/02/01 11:53:23;;;;;;;25.47;4.43;;;;;;;-142.75;100.00;77590.09;5027712;28;20029;-69
2022/02/01 11:55:50;;;;;;;21.87;5.17;;;;;;;-142.75;100.00;77594.03;5027709;28;20025;-67
2022/02/01 11:58:27;;;;;;;14.30;3.17;;;;;;;-142.75;100.00;77580.25;5027207;28;20039;-67
2022/02/01 12:00:53;;;;;;;15.30;3.93;;;;;;;-142.75;100.00;77578.28;5027397;28;20446;-68
2022/02/01 12:03:20;;;;;;;18.42;4.38;;;;;;;-142.75;100.00;77580.25;5027434;28;20036;-67
2022/02/01 12:05:57;;;;;;;16.88;3.50;;;;;;;-142.75;100.00;77576.31;5027301;28;20100;-68
2022/02/01 12:08:28;;;;;;;13.93;3.42;;;;;;;-142.75;100.00;77562.53;5026921;28;20068;-68
2022/02/01 12:10:57;;;;;;;14.97;3.57;;;;;;;-142.75;100.00;77556.63;5026332;28;20021;-67
2022/02/01 12:13:24;;;;;;;17.60;3.30;;;;;;;-142.75;100.00;77556.63;5028148;28;20029;-68
2022/02/01 12:15:56;;;;;;;14.70;3.73;;;;;;;-142.75;100.00;77556.63;5028262;28;20079;-69
2022/02/01 12:18:46;;;;;;;10.07;3.30;;;;;;;-142.75;100.00;77544.81;5029590;28;20041;-68
2022/02/01 12:21:27;;;;;;;18.63;3.40;;;;;;;-142.75;100.00;77542.84;5029050;28;20105;-68
2022/02/01 12:23:53;;;;;;;12.37;3.00;;;;;;;-142.75;100.00;77544.81;5029072;28;20368;-68
2022/02/01 12:26:27;;;;;;;15.18;2.88;;;;;;;-142.75;100.00;77531.03;5029145;28;20041;-67
2022/02/01 12:28:55;;;;;;;10.30;2.93;;;;;;;-142.75;100.00;77527.09;5028728;28;20491;-68
2022/02/01 12:31:24;;;;;;;10.52;2.92;;;;;;;-142.75;100.00;77523.16;5028067;28;20094;-68
2022/02/01 12:33:55;;;;;;;11.70;2.90;;;;;;;-142.75;100.00;77519.22;5029245;28;20509;-68
2022/02/01 12:36:28;;;;;;;13.37;3.17;;;;;;;-142.75;100.00;77519.22;5029009;28;20056;-69
2022/02/01 12:39:03;;;;;;;9.50;3.17;;;;;;;-142.75;100.00;77507.41;5027610;28;20033;-67
2022/02/01 12:41:42;;;;;;;17.25;4.38;;;;;;;-142.75;100.00;77489.69;5029188;28;20053;-67